Time;durP1;ratioP1;P1;durP2;ratioP2;P2;SDS_P1;SDS_P2;PMS_P1;PMS_P2;Temp;Humidity;BMP_temperature;BMP_pressure;BME280_temperature;BME280_humidity;BME280_pressure;Samples;Min_cycle;Max_cycle;Signal;HPM_P1;HPM_P2
2021/03/07 00:00:55;;;;;;;12.83;11.40;;;5.30;99.90;;;5.58;67.24;102891.81;4899950;29;20056;-72
2021/03/07 00:03:24;;;;;;;12.70;9.97;;;5.30;99.90;;;5.54;67.23;102895.09;4916940;29;20052;-69
2021/03/07 00:05:51;;;;;;;13.97;9.97;;;5.30;99.90;;;5.45;67.22;102892.03;4916725;29;20486;-68
2021/03/07 00:08:19;;;;;;;16.87;9.80;;;5.20;99.90;;;5.37;67.29;102888.13;4916714;29;20044;-72
2021/03/07 00:10:46;;;;;;;14.63;11.40;;;5.10;99.90;;;5.32;67.31;102874.78;4916748;29;20067;-69
2021/03/07 00:13:14;;;;;;;15.47;10.67;;;5.10;99.90;;;4.59;67.00;102751.38;4916588;29;20139;-69
2021/03/07 00:15:41;;;;;;;11.63;10.33;;;5.10;99.90;;;5.21;66.86;102870.75;4916684;29;20044;-68
2021/03/07 00:18:09;;;;;;;12.80;10.67;;;5.00;99.90;;;5.08;67.37;102849.09;4899479;29;20554;-69
2021/03/07 00:20:37;;;;;;;13.20;10.80;;;5.00;99.90;;;5.26;67.25;102874.50;4916584;29;20091;-70
2021/03/07 00:23:05;;;;;;;14.03;10.77;;;5.00;99.90;;;5.29;67.55;102874.66;4899595;29;20124;-68
2021/03/07 00:25:32;;;;;;;12.20;10.83;;;5.00;99.90;;;5.31;66.92;102872.09;4916890;29;20044;-89
2021/03/07 00:28:00;;;;;;;18.57;11.97;;;5.00;99.90;;;5.46;66.56;102880.69;4916687;29;20055;-71
2021/03/07 00:30:27;;;;;;;17.47;11.73;;;5.10;99.90;;;5.57;66.51;102876.91;4916465;29;20052;-70
2021/03/07 00:32:55;;;;;;;14.23;11.37;;;5.20;99.90;;;5.62;66.61;102867.50;4916366;29;20043;-69
2021/03/07 00:35:22;;;;;;;14.87;11.33;;;5.40;99.90;;;5.70;66.24;102868.75;4916550;29;20071;-69
2021/03/07 00:37:51;;;;;;;14.10;11.07;;;5.50;99.90;;;5.28;66.22;102799.38;4916391;29;20048;-69
2021/03/07 00:40:18;;;;;;;18.57;10.83;;;5.50;99.90;;;5.82;65.99;102871.06;4916316;29;20036;-69
2021/03/07 00:42:48;;;;;;;15.73;11.10;;;5.50;99.90;;;5.82;65.85;102868.44;4899471;29;20142;-69
2021/03/07 00:45:18;;;;;;;16.33;11.80;;;5.50;99.90;;;5.70;65.43;102834.63;4916301;29;20076;-69
2021/03/07 00:47:45;;;;;;;16.65;11.50;;;5.60;99.90;;;5.93;65.91;102867.25;4916329;29;20155;-68
2021/03/07 00:50:14;;;;;;;11.93;9.53;;;5.60;99.90;;;6.08;66.17;102871.47;4899464;29;20056;-69
2021/03/07 00:52:41;;;;;;;11.40;10.30;;;5.80;99.90;;;6.03;66.38;102866.84;4916217;29;20044;-69
2021/03/07 00:55:10;;;;;;;13.17;10.03;;;5.70;99.90;;;5.98;66.28;102871.88;4916292;29;20040;-69
2021/03/07 00:57:38;;;;;;;15.37;11.30;;;5.70;99.90;;;5.99;67.01;102864.91;4916419;29;20052;-68
2021/03/07 01:00:11;;;;;;;13.37;10.50;;;5.70;99.90;;;6.01;66.79;102861.53;4916202;29;20107;-69
2021/03/07 01:02:38;;;;;;;11.17;10.03;;;5.80;99.90;;;6.09;66.80;102860.16;4916217;29;20062;-69
2021/03/07 01:05:08;;;;;;;14.57;9.57;;;5.90;99.90;;;6.11;66.06;102850.63;4916271;29;20044;-69
2021/03/07 01:07:35;;;;;;;11.93;9.33;;;5.90;99.90;;;6.33;66.13;102862.97;4916105;29;20056;-69
2021/03/07 01:10:12;;;;;;;16.03;9.63;;;6.00;99.90;;;6.39;65.81;102856.25;4916016;29;20483;-69
2021/03/07 01:12:41;;;;;;;13.33;9.03;;;6.10;99.90;;;6.45;65.91;102844.19;4915957;29;20060;-69
2021/03/07 01:15:10;;;;;;;13.37;9.00;;;6.20;99.90;;;6.45;65.77;102849.47;4915996;29;20082;-69
2021/03/07 01:17:37;;;;;;;13.03;9.83;;;6.20;99.90;;;6.33;65.87;102850.72;4915844;29;20088;-68
2021/03/07 01:20:13;;;;;;;14.77;9.90;;;6.10;99.90;;;6.35;65.90;102851.69;4916037;29;20048;-68
2021/03/07 01:22:49;;;;;;;13.00;9.70;;;6.10;99.90;;;6.39;65.44;102832.59;4916035;29;20052;-68
2021/03/07 01:25:19;;;;;;;14.43;9.80;;;6.10;99.90;;;6.27;66.03;102815.41;4916248;29;20067;-69
2021/03/07 01:27:46;;;;;;;12.70;9.50;;;6.10;99.90;;;6.57;65.36;102844.75;4899104;29;20060;-68
2021/03/07 01:30:16;;;;;;;14.13;10.10;;;6.30;99.90;;;6.64;65.82;102833.69;4915950;29;20068;-69
2021/03/07 01:32:43;;;;;;;11.57;10.17;;;6.40;99.90;;;6.60;64.95;102837.00;4916012;29;20051;-69
2021/03/07 01:35:13;;;;;;;16.27;10.37;;;6.40;99.90;;;6.23;65.00;102835.38;4915847;29;20119;-69
2021/03/07 01:37:40;;;;;;;12.67;10.47;;;6.10;99.90;;;6.14;65.32;102832.34;4916383;29;20143;-69
2021/03/07 01:40:11;;;;;;;11.20;10.07;;;5.90;99.90;;;6.01;65.62;102822.13;4918865;29;20043;-68
2021/03/07 01:42:43;;;;;;;16.37;11.00;;;5.80;99.90;;;5.98;65.89;102816.72;4902481;29;20048;-69
2021/03/07 01:45:12;;;;;;;14.67;11.23;;;5.70;99.90;;;6.03;66.36;102817.84;4919357;29;20422;-69
2021/03/07 01:47:47;;;;;;;15.80;11.00;;;5.70;99.90;;;6.13;66.49;102806.00;4919345;29;20073;-69
2021/03/07 01:50:17;;;;;;;12.63;10.40;;;5.80;99.90;;;6.17;66.43;102805.31;4919289;29;20052;-69
2021/03/07 01:52:46;;;;;;;11.43;9.98;;;5.90;99.90;;;6.06;66.35;102802.19;4919356;29;20047;-69
2021/03/07 01:55:16;;;;;;;12.77;10.87;;;5.80;99.90;;;6.04;66.86;102800.38;4919168;29;20071;-69
2021/03/07 01:57:48;;;;;;;12.57;10.07;;;5.80;99.90;;;5.96;67.33;102797.38;4919101;29;20056;-69
2021/03/07 02:00:17;;;;;;;12.27;10.97;;;5.70;99.90;;;5.92;67.72;102799.81;4919108;29;20494;-69
2021/03/07 02:02:45;;;;;;;15.53;12.03;;;5.60;99.90;;;5.79;67.51;102793.03;4919142;29;20154;-69
2021/03/07 02:05:15;;;;;;;14.23;10.90;;;5.50;99.90;;;5.77;67.82;102789.44;4902171;29;20055;-69
2021/03/07 02:07:43;;;;;;;14.55;9.60;;;5.50;99.90;;;5.81;68.31;102788.75;4919122;29;20052;-69
2021/03/07 02:10:17;;;;;;;15.33;11.53;;;5.50;99.90;;;5.88;68.74;102787.34;4918838;29;20044;-69
2021/03/07 02:12:51;;;;;;;20.60;12.10;;;5.60;99.90;;;5.87;68.56;102783.81;4918917;29;20068;-69
2021/03/07 02:15:19;;;;;;;12.30;10.70;;;5.60;99.90;;;5.64;68.28;102737.22;4918718;29;20519;-69
2021/03/07 02:17:54;;;;;;;15.27;12.13;;;5.60;99.90;;;5.87;68.05;102762.81;4918724;29;20040;-70
2021/03/07 02:20:24;;;;;;;15.60;12.50;;;5.70;99.90;;;5.37;67.87;102679.13;4918666;29;20414;-69
2021/03/07 02:22:58;;;;;;;16.43;12.43;;;5.60;99.90;;;5.85;67.83;102767.09;4918535;29;20044;-69
2021/03/07 02:25:30;;;;;;;20.10;12.90;;;5.60;99.90;;;5.84;67.58;102765.31;4918623;29;20056;-69
2021/03/07 02:27:59;;;;;;;14.57;12.63;;;5.60;99.90;;;5.85;68.19;102761.84;4918552;29;20043;-69
2021/03/07 02:30:27;;;;;;;15.70;12.73;;;5.60;99.90;;;5.79;68.46;102756.28;4901697;29;20064;-69
2021/03/07 02:33:08;;;;;;;15.70;13.47;;;5.50;99.90;;;5.69;68.43;102747.94;4918435;29;20502;-69
2021/03/07 02:35:41;;;;;;;19.97;14.40;;;5.50;99.90;;;5.66;68.39;102748.69;4918514;29;20058;-68
2021/03/07 02:38:11;;;;;;;18.37;13.40;;;5.50;99.90;;;5.75;68.27;102745.59;4918340;29;20517;-69
2021/03/07 02:40:39;;;;;;;18.60;13.63;;;5.50;99.90;;;5.28;67.68;102651.59;4918570;29;20087;-69
2021/03/07 02:43:13;;;;;;;17.17;13.07;;;5.60;99.90;;;5.92;67.44;102735.03;4918370;29;20300;-69
2021/03/07 02:45:44;;;;;;;21.83;12.87;;;5.70;99.90;;;5.95;66.95;102737.81;4918307;29;20048;-69
2021/03/07 02:48:19;;;;;;;17.57;13.13;;;5.70;99.90;;;5.90;67.54;102728.84;4918300;29;20052;-69
2021/03/07 02:50:49;;;;;;;14.77;13.07;;;5.70;99.90;;;5.84;67.55;102733.81;4917119;29;20048;-69
2021/03/07 02:53:21;;;;;;;18.30;13.70;;;5.70;99.90;;;5.83;68.03;102723.19;4901147;29;20052;-69
2021/03/07 02:55:56;;;;;;;15.70;12.77;;;5.60;99.90;;;5.85;67.81;102722.47;4918027;29;20119;-69
2021/03/07 02:58:24;;;;;;;16.30;13.27;;;5.60;99.90;;;5.84;67.68;102718.06;4918105;29;20063;-68
2021/03/07 03:00:57;;;;;;;17.73;14.33;;;5.60;99.90;;;5.89;67.29;102721.78;4917894;29;20131;-70
2021/03/07 03:03:30;;;;;;;16.20;13.10;;;5.60;99.90;;;5.90;67.36;102717.44;4901167;29;20044;-69
2021/03/07 03:05:59;;;;;;;20.67;13.17;;;5.60;99.90;;;5.93;67.25;102720.16;4918010;29;20405;-69
2021/03/07 03:08:29;;;;;;;19.27;13.10;;;5.70;99.90;;;5.84;67.63;102718.06;4900972;29;20060;-69
2021/03/07 03:10:58;;;;;;;20.08;12.82;;;5.60;99.90;;;5.81;67.77;102710.00;4918100;29;20398;-69
2021/03/07 03:13:33;;;;;;;15.73;13.17;;;5.60;99.90;;;5.86;67.86;102715.50;4917715;29;20104;-69
2021/03/07 03:16:03;;;;;;;14.45;12.48;;;5.60;99.90;;;5.88;68.22;102705.97;4917726;29;20040;-69
2021/03/07 03:18:34;;;;;;;15.73;12.68;;;5.60;99.90;;;5.86;68.36;102700.63;4917842;29;20127;-69
2021/03/07 03:21:08;;;;;;;19.70;13.65;;;5.60;99.90;;;5.82;68.51;102700.41;4900994;29;20059;-69
2021/03/07 03:23:36;;;;;;;19.10;13.43;;;5.60;99.90;;;5.80;68.47;102709.94;4917574;29;20119;-69
2021/03/07 03:26:04;;;;;;;15.43;12.53;;;5.60;99.90;;;5.68;68.60;102678.78;4900433;29;20067;-69
2021/03/07 03:28:32;;;;;;;15.57;12.83;;;5.60;99.90;;;5.86;68.62;102698.03;4917424;29;20083;-69
2021/03/07 03:31:00;;;;;;;17.20;12.63;;;5.60;99.90;;;5.89;69.03;102700.75;4917301;29;20048;-69
2021/03/07 03:33:28;;;;;;;18.23;13.33;;;5.60;99.90;;;5.94;68.96;102709.72;4900367;29;20514;-69
2021/03/07 03:35:56;;;;;;;14.23;12.00;;;5.60;99.90;;;5.89;68.91;102695.50;4900449;29;20391;-69
2021/03/07 03:38:32;;;;;;;16.23;12.60;;;5.60;99.90;;;5.85;68.94;102701.47;4917219;29;20096;-69
2021/03/07 03:40:59;;;;;;;15.70;14.03;;;5.60;99.90;;;5.87;69.27;102705.03;4917764;29;20045;-69
2021/03/07 03:43:29;;;;;;;20.07;12.97;;;5.60;99.90;;;5.95;69.28;102701.03;4917189;29;20110;-69
2021/03/07 03:46:01;;;;;;;20.03;14.93;;;5.70;99.90;;;5.93;69.07;102700.06;4917215;29;20446;-69
2021/03/07 03:48:33;;;;;;;15.20;12.80;;;5.70;99.90;;;5.95;69.27;102702.75;4900260;29;20312;-68
2021/03/07 03:51:03;;;;;;;15.93;12.33;;;5.70;99.90;;;5.84;69.59;102689.16;4917038;29;20506;-69
2021/03/07 03:53:34;;;;;;;14.50;13.00;;;5.70;99.90;;;5.97;70.03;102702.00;4916961;29;20108;-69
2021/03/07 03:56:02;;;;;;;15.93;12.70;;;5.70;99.90;;;6.02;69.66;102699.59;4917182;29;20133;-70
2021/03/07 03:58:38;;;;;;;20.73;13.13;;;5.70;99.90;;;5.59;70.48;102715.13;4916988;29;20494;-69
2021/03/07 04:01:07;;;;;;;16.20;12.93;;;5.40;99.90;;;5.55;70.35;102683.41;4899738;29;20059;-69
2021/03/07 04:03:35;;;;;;;14.40;12.17;;;5.40;99.90;;;5.70;70.29;102686.72;4916809;29;20056;-69
2021/03/07 04:06:04;;;;;;;15.60;12.63;;;5.40;99.90;;;5.83;70.71;102690.00;4916860;29;20451;-69
2021/03/07 04:08:32;;;;;;;16.17;13.43;;;5.50;99.90;;;5.83;70.82;102690.00;4916992;29;20486;-69
2021/03/07 04:11:00;;;;;;;18.33;14.20;;;5.50;99.90;;;5.70;70.98;102664.00;4916788;29;20123;-69
2021/03/07 04:13:28;;;;;;;15.23;12.33;;;5.60;99.90;;;5.90;70.78;102693.78;4899269;29;20151;-69
2021/03/07 04:15:57;;;;;;;18.57;12.30;;;5.60;99.90;;;5.95;70.60;102689.63;4916743;29;20477;-69
2021/03/07 04:18:28;;;;;;;17.70;12.32;;;5.70;99.90;;;6.02;69.58;102697.81;4916695;29;20494;-69
2021/03/07 04:20:56;;;;;;;13.60;11.80;;;5.70;99.90;;;5.46;70.15;102687.41;4916636;29;20502;-69
2021/03/07 04:23:24;;;;;;;13.67;12.27;;;5.30;99.90;;;5.59;70.20;102690.59;4916792;29;20055;-69
2021/03/07 04:25:52;;;;;;;17.33;12.40;;;5.40;99.90;;;5.60;70.19;102685.41;4916898;29;20079;-69
2021/03/07 04:28:20;;;;;;;15.13;12.80;;;5.30;99.90;;;5.60;70.66;102685.41;4916491;29;20406;-69
2021/03/07 04:30:47;;;;;;;14.87;12.23;;;5.30;99.90;;;5.70;70.52;102687.63;4916500;29;20102;-69
2021/03/07 04:33:16;;;;;;;15.13;12.43;;;5.40;99.90;;;5.21;70.52;102581.28;4916694;29;20052;-69
2021/03/07 04:35:43;;;;;;;15.33;12.00;;;5.50;99.90;;;5.92;70.43;102692.13;4916533;29;20119;-69
2021/03/07 04:38:12;;;;;;;13.73;12.30;;;5.60;99.90;;;5.86;70.16;102679.63;4916459;29;20126;-69
2021/03/07 04:40:42;;;;;;;16.73;13.13;;;5.60;99.90;;;6.01;70.15;102684.63;4899463;29;20403;-69
2021/03/07 04:43:09;;;;;;;20.00;13.13;;;5.70;99.90;;;6.07;70.27;102684.91;4916613;29;20062;-69
2021/03/07 04:45:37;;;;;;;15.57;12.23;;;5.80;99.90;;;5.94;70.20;102657.19;4916406;29;20072;-69
2021/03/07 04:48:06;;;;;;;14.70;11.73;;;5.80;99.90;;;6.11;69.82;102678.94;4899337;29;20107;-69
2021/03/07 04:50:34;;;;;;;14.00;11.77;;;5.80;99.90;;;5.16;70.21;102551.34;4916317;29;20052;-69
2021/03/07 04:53:02;;;;;;;14.20;12.27;;;5.60;99.90;;;5.83;70.57;102654.91;4916413;29;20044;-69
2021/03/07 04:55:29;;;;;;;13.43;11.47;;;5.70;99.90;;;6.04;70.23;102677.78;4916239;29;20052;-69
2021/03/07 04:57:57;;;;;;;14.77;11.57;;;5.70;99.90;;;6.13;70.04;102679.91;4916015;29;20048;-70
2021/03/07 05:00:25;;;;;;;14.83;12.20;;;5.80;99.90;;;6.33;68.73;102674.66;4916448;29;20056;-69
2021/03/07 05:02:52;;;;;;;12.73;11.43;;;6.00;99.90;;;6.23;69.63;102677.72;4899387;29;20056;-70
2021/03/07 05:05:20;;;;;;;13.23;11.87;;;6.00;99.90;;;6.26;70.37;102676.97;4916299;29;20044;-69
2021/03/07 05:07:48;;;;;;;15.77;12.30;;;6.00;99.90;;;6.31;70.03;102675.41;4916211;29;20064;-69
2021/03/07 05:10:16;;;;;;;14.73;12.67;;;6.00;99.90;;;6.13;69.75;102648.38;4916078;29;20048;-69
2021/03/07 05:12:43;;;;;;;17.00;13.10;;;6.00;99.90;;;5.87;69.78;102670.91;4899331;29;20123;-69
2021/03/07 05:15:11;;;;;;;16.00;12.20;;;5.70;99.90;;;6.07;70.27;102674.41;4919096;29;20447;-69
2021/03/07 05:17:38;;;;;;;14.40;12.73;;;5.70;99.90;;;6.10;70.13;102667.53;4919890;29;20480;-69
2021/03/07 05:20:07;;;;;;;15.87;13.03;;;5.80;99.90;;;5.95;70.28;102651.13;4919881;29;20047;-69
2021/03/07 05:22:35;;;;;;;17.53;13.50;;;5.80;99.90;;;5.53;70.45;102656.19;4919649;29;20052;-69
2021/03/07 05:25:04;;;;;;;15.27;12.37;;;5.40;99.90;;;5.60;71.02;102655.63;4902620;29;20080;-69
2021/03/07 05:27:31;;;;;;;17.93;13.20;;;5.30;99.90;;;5.58;71.12;102657.28;4919767;29;20051;-69
2021/03/07 05:29:59;;;;;;;15.93;13.03;;;5.40;99.90;;;5.67;70.58;102647.22;4902771;29;20139;-69
2021/03/07 05:32:26;;;;;;;15.13;12.40;;;5.40;99.90;;;5.63;69.51;102654.06;4919534;29;20386;-69
2021/03/07 05:34:54;;;;;;;16.07;12.20;;;5.30;99.90;;;5.64;69.94;102647.97;4919522;29;20055;-69
2021/03/07 05:37:21;;;;;;;14.67;12.20;;;5.30;99.90;;;5.73;65.36;102642.25;4919451;29;20055;-69
2021/03/07 05:39:48;;;;;;;12.93;11.03;;;5.50;99.90;;;5.96;62.12;102646.78;4919250;29;20075;-69
2021/03/07 05:42:18;;;;;;;15.13;12.57;;;5.70;99.90;;;6.18;62.33;102641.59;4919544;29;20055;-69
2021/03/07 05:44:45;;;;;;;14.67;12.77;;;5.90;99.90;;;6.11;63.63;102640.44;4919481;29;20119;-69
2021/03/07 05:47:13;;;;;;;17.83;14.60;;;5.90;99.90;;;6.02;63.95;102644.44;4902361;29;20056;-69
2021/03/07 05:49:41;;;;;;;17.80;13.10;;;5.80;99.90;;;6.16;63.98;102640.63;4919265;29;20107;-70
2021/03/07 05:52:08;;;;;;;16.53;13.37;;;5.80;99.90;;;5.89;66.20;102635.13;4902147;29;20059;-69
2021/03/07 05:54:36;;;;;;;16.37;13.53;;;5.70;99.90;;;5.90;66.28;102629.03;4919258;29;20036;-69
2021/03/07 05:57:05;;;;;;;18.93;16.23;;;5.70;99.90;;;5.81;64.60;102632.94;4902154;29;20151;-69
2021/03/07 05:59:36;;;;;;;20.93;18.20;;;5.60;99.90;;;5.61;61.49;102628.56;4919160;29;20052;-69
2021/03/07 06:02:03;;;;;;;18.23;16.27;;;5.40;99.90;;;5.94;61.84;102623.06;4919118;29;20127;-69
2021/03/07 06:04:31;;;;;;;19.13;15.30;;;5.60;99.90;;;6.05;62.39;102618.28;4901916;29;20044;-69
2021/03/07 06:06:58;;;;;;;14.67;12.93;;;5.80;99.90;;;6.16;63.75;102631.03;4902178;29;20514;-69
2021/03/07 06:09:28;;;;;;;17.97;15.17;;;5.90;99.90;;;6.22;63.91;102627.75;4918800;29;20052;-69
2021/03/07 06:11:57;;;;;;;15.52;13.95;;;5.90;99.90;;;6.31;64.29;102631.66;4902027;29;20119;-69
2021/03/07 06:14:28;;;;;;;15.37;12.83;;;6.00;99.90;;;6.35;64.94;102624.78;4918498;29;20088;-68
2021/03/07 06:17:06;;;;;;;18.00;15.83;;;6.10;99.90;;;6.44;64.24;102627.81;4919099;29;20052;-69
2021/03/07 06:19:57;;;;;;;19.60;15.30;;;6.20;99.90;;;6.46;63.61;102630.47;4918566;29;20498;-69
2021/03/07 06:22:25;;;;;;;17.07;13.60;;;6.20;99.90;;;6.47;63.63;102624.38;4918698;29;20454;-69
2021/03/07 06:24:53;;;;;;;20.47;14.57;;;6.20;99.90;;;6.52;63.88;102622.84;4918254;29;20096;-69
2021/03/07 06:27:21;;;;;;;19.83;15.37;;;6.30;99.90;;;6.37;63.25;102621.38;4918505;29;20112;-69
2021/03/07 06:30:02;;;;;;;17.43;15.23;;;6.20;99.90;;;6.55;64.40;102621.22;4918440;29;20071;-69
2021/03/07 06:32:32;;;;;;;;;;;6.20;99.90;;;6.51;65.29;102626.28;4918925;29;20044;-69
2021/03/07 06:35:00;;;;;;;17.13;14.65;;;6.30;99.90;;;6.48;65.52;102616.59;4918522;29;19987;-68
2021/03/07 06:37:28;;;;;;;17.53;15.43;;;6.20;99.90;;;6.50;65.39;102614.00;4918396;29;20055;-69
2021/03/07 06:39:55;;;;;;;21.00;16.67;;;6.30;99.90;;;6.34;64.06;102616.03;4918328;29;20044;-69
2021/03/07 06:42:22;;;;;;;19.63;17.17;;;6.10;99.90;;;6.48;64.07;102613.94;4917986;29;20083;-69
2021/03/07 06:44:59;;;;;;;21.27;18.27;;;6.20;99.90;;;6.39;62.82;102609.22;4918243;29;20162;-69
2021/03/07 06:47:30;;;;;;;20.30;17.13;;;6.10;99.90;;;6.46;62.23;102591.06;4901410;29;20048;-69
2021/03/07 06:50:15;;;;;;;;;;;6.30;99.90;;;6.64;60.08;102605.81;4901758;29;20075;-68
2021/03/07 06:52:53;;;;;;;22.97;18.93;;;6.30;99.90;;;6.68;60.13;102606.84;4918159;29;19927;-69
2021/03/07 06:55:26;;;;;;;21.77;17.73;;;6.40;99.90;;;6.71;58.56;102614.84;4917939;29;20103;-69
2021/03/07 06:57:54;;;;;;;19.50;16.80;;;6.50;99.90;;;6.70;57.47;102608.69;4918128;29;20402;-69
2021/03/07 07:00:40;;;;;;;19.27;17.10;;;6.50;99.90;;;5.99;57.38;102479.72;4917963;29;20123;-69
2021/03/07 07:03:12;;;;;;;19.37;16.87;;;6.50;99.90;;;6.66;57.16;102608.53;4917937;29;20052;-69
2021/03/07 07:05:42;;;;;;;19.50;16.53;;;6.40;99.90;;;6.43;57.61;102575.19;4901102;29;20048;-69
2021/03/07 07:08:11;;;;;;;;;;;6.30;99.90;;;6.24;59.66;102605.06;4918350;29;20170;-70
2021/03/07 07:11:03;;;;;;;23.90;17.93;;;6.00;99.90;;;6.35;60.06;102583.63;4917855;29;20013;-69
2021/03/07 07:13:36;;;;;;;23.57;20.67;;;6.20;99.90;;;6.45;57.92;102611.19;4908164;29;20080;-69
2021/03/07 07:16:06;;;;;;;23.40;19.33;;;6.20;99.90;;;6.50;58.26;102608.75;4917033;29;20040;-71
2021/03/07 07:18:37;;;;;;;19.98;17.88;;;6.20;99.90;;;6.58;57.65;102602.94;4917863;29;20047;-70
2021/03/07 07:21:08;;;;;;;19.63;16.87;;;6.30;99.90;;;6.56;58.16;102602.00;4900696;29;20498;-69
2021/03/07 07:23:36;;;;;;;22.75;16.92;;;6.40;99.90;;;6.57;58.52;102595.91;4917621;29;20052;-69
2021/03/07 07:26:04;;;;;;;17.33;14.93;;;6.40;99.90;;;6.63;58.48;102603.13;4917447;29;20094;-69
2021/03/07 07:28:34;;;;;;;20.17;16.90;;;6.40;99.90;;;6.52;59.08;102605.34;4917482;29;20502;-69
2021/03/07 07:31:06;;;;;;;18.65;16.35;;;6.40;99.90;;;6.61;59.33;102605.72;4900595;29;20480;-69
2021/03/07 07:33:45;;;;;;;18.97;16.43;;;6.40;99.90;;;6.74;58.79;102601.81;4917412;29;20099;-69
2021/03/07 07:36:22;;;;;;;17.70;15.80;;;6.50;99.90;;;6.66;58.54;102576.97;4916786;29;20585;-69
2021/03/07 07:38:51;;;;;;;17.60;15.70;;;6.50;99.90;;;6.94;58.56;102607.03;4917525;29;20139;-69
2021/03/07 07:41:32;;;;;;;17.03;15.23;;;6.70;99.90;;;6.91;57.75;102585.84;4917303;29;20084;-69
2021/03/07 07:44:01;;;;;;;18.20;16.30;;;6.70;99.90;;;7.16;57.52;102617.50;4917009;29;20446;-69
2021/03/07 07:46:55;;;;;;;18.27;15.63;;;6.90;99.90;;;7.02;58.05;102597.69;4900251;29;20156;-69
2021/03/07 07:49:45;;;;;;;17.00;15.20;;;6.90;99.90;;;7.10;57.31;102611.13;4917148;29;20048;-69
2021/03/07 07:52:38;;;;;;;19.77;15.63;;;6.90;99.90;;;7.12;57.47;102610.31;4917125;29;20574;-69
2021/03/07 07:55:15;;;;;;;17.43;15.60;;;6.90;99.90;;;7.18;57.45;102609.69;4916924;29;20044;-69
2021/03/07 07:57:51;;;;;;;16.87;14.93;;;6.90;99.90;;;7.24;57.63;102609.88;4899918;29;20056;-70
2021/03/07 08:00:47;;;;;;;16.43;14.73;;;7.00;99.90;;;7.17;56.65;102610.50;4917028;29;20087;-69
2021/03/07 08:03:33;;;;;;;17.17;15.30;;;6.90;99.90;;;7.31;57.58;102617.19;4916729;29;20063;-69
2021/03/07 08:06:02;;;;;;;17.23;15.53;;;7.00;99.90;;;7.28;58.00;102606.53;4899747;29;20054;-69
2021/03/07 08:08:34;;;;;;;17.83;16.03;;;7.00;99.90;;;7.35;57.65;102608.56;4916725;29;20525;-69
2021/03/07 08:11:03;;;;;;;18.07;16.27;;;7.00;99.90;;;7.36;57.33;102610.34;4899876;29;20052;-69
2021/03/07 08:13:47;;;;;;;17.53;15.63;;;7.10;99.90;;;7.44;57.02;102607.97;4899435;29;20522;-68
2021/03/07 08:16:42;;;;;;;18.13;15.10;;;7.20;99.90;;;7.50;57.06;102611.75;4899443;29;20443;-69
2021/03/07 08:19:11;;;;;;;18.37;16.07;;;7.20;99.90;;;7.44;56.61;102577.28;4916773;29;20048;-71
2021/03/07 08:22:03;;;;;;;17.00;14.90;;;7.30;99.90;;;7.71;55.64;102611.59;4899698;29;20127;-70
2021/03/07 08:24:54;;;;;;;15.97;14.07;;;7.40;99.90;;;7.15;56.13;102509.56;4916523;29;20047;-71
2021/03/07 08:27:34;;;;;;;18.07;15.17;;;7.40;99.90;;;7.58;56.88;102610.28;4916557;29;20055;-70
2021/03/07 08:30:03;;;;;;;16.63;14.90;;;7.40;99.90;;;7.65;57.11;102611.38;4916596;29;20060;-71
2021/03/07 08:32:39;;;;;;;18.10;16.13;;;7.40;99.90;;;7.64;56.78;102602.59;4916242;29;20107;-72
2021/03/07 08:35:15;;;;;;;18.03;14.90;;;7.30;99.90;;;7.66;57.27;102600.00;4916468;29;20047;-77
2021/03/07 08:38:10;;;;;;;20.97;16.37;;;7.40;99.90;;;7.83;56.54;102605.03;4899425;29;20055;-81
2021/03/07 08:40:39;;;;;;;18.13;15.13;;;7.50;99.90;;;7.77;56.33;102580.19;4916370;29;20048;-72
2021/03/07 08:43:52;;;;;;;17.30;15.50;;;7.60;99.90;;;7.95;55.59;102609.81;4916092;29;20048;-75
2021/03/07 08:46:24;;;;;;;17.33;15.45;;;7.70;99.90;;;7.92;55.45;102607.97;4916158;29;20044;-75
2021/03/07 08:48:54;;;;;;;17.60;15.80;;;7.70;99.90;;;7.92;55.60;102602.69;4917647;29;20047;-74
2021/03/07 08:51:31;;;;;;;17.80;15.05;;;7.70;99.90;;;7.97;54.86;102595.88;4903197;29;20130;-73
2021/03/07 08:54:05;;;;;;;18.48;14.63;;;7.70;99.90;;;7.86;54.90;102573.50;4920441;29;20044;-72
2021/03/07 08:56:36;;;;;;;17.83;15.05;;;7.70;99.90;;;8.13;54.66;102600.78;4920231;29;20494;-73
2021/03/07 08:59:04;;;;;;;17.15;14.82;;;7.90;99.90;;;8.21;54.27;102595.75;4920235;29;20443;-72
2021/03/07 09:01:32;;;;;;;16.30;14.60;;;7.90;99.90;;;8.23;54.13;102608.16;4919739;29;20048;-73
2021/03/07 09:04:03;;;;;;;18.42;15.38;;;8.00;99.90;;;8.31;54.28;102596.97;4902951;29;20048;-73
2021/03/07 09:06:33;;;;;;;19.48;14.88;;;8.10;99.90;;;8.16;53.60;102561.38;4920043;29;20040;-73
2021/03/07 09:09:08;;;;;;;20.48;15.27;;;8.10;99.90;;;8.41;53.42;102588.53;4902966;29;20056;-73
2021/03/07 09:11:38;;;;;;;17.98;15.20;;;8.20;99.90;;;8.40;53.17;102589.41;4919756;29;20497;-72
2021/03/07 09:14:06;;;;;;;16.35;14.70;;;8.20;99.90;;;8.49;53.70;102589.66;4919009;29;20064;-73
2021/03/07 09:16:39;;;;;;;17.40;15.18;;;8.20;99.90;;;8.52;53.53;102581.84;4919921;29;20087;-72
2021/03/07 09:19:29;;;;;;;15.98;14.27;;;8.30;99.90;;;8.61;53.06;102584.78;4919706;29;20107;-69
2021/03/07 09:22:14;;;;;;;15.52;13.68;;;8.30;99.90;;;8.59;52.33;102587.38;4919399;29;20044;-67
2021/03/07 09:25:00;;;;;;;16.25;13.73;;;8.40;99.90;;;8.59;50.82;102575.94;4919565;29;20040;-69
2021/03/07 09:27:31;;;;;;;19.73;13.73;;;8.40;99.90;;;8.62;50.74;102581.28;4919730;29;20083;-69
2021/03/07 09:30:11;;;;;;;13.23;11.82;;;8.40;99.90;;;8.65;49.87;102576.13;4919599;29;20067;-70
2021/03/07 09:32:41;;;;;;;15.43;13.57;;;8.40;99.90;;;8.64;49.73;102579.59;4902572;29;20123;-69
2021/03/07 09:35:27;;;;;;;;;;;8.40;99.90;;;8.75;49.57;102579.06;4919557;29;20059;-70
2021/03/07 09:37:59;;;;;;;17.02;13.30;;;8.50;99.90;;;8.74;48.89;102579.03;4919752;29;20373;-69
2021/03/07 09:40:31;;;;;;;18.35;12.95;;;8.50;99.90;;;8.71;49.25;102573.69;4902321;29;20062;-69
2021/03/07 09:43:01;;;;;;;14.77;13.27;;;8.50;99.90;;;8.71;49.58;102568.41;4919112;29;20060;-67
2021/03/07 09:45:30;;;;;;;15.43;13.52;;;8.50;99.90;;;8.75;48.98;102573.78;4919436;29;20076;-68
2021/03/07 09:48:16;;;;;;;13.82;12.35;;;8.50;99.90;;;8.50;49.57;102534.34;4902324;29;20044;-68
2021/03/07 09:50:44;;;;;;;16.10;13.05;;;8.40;99.90;;;8.74;48.76;102573.75;4919235;29;20491;-69
2021/03/07 09:53:13;;;;;;;16.27;12.93;;;8.50;99.90;;;8.75;49.01;102565.00;4919258;29;20048;-68
2021/03/07 09:55:42;;;;;;;14.98;13.38;;;8.50;99.90;;;8.65;48.79;102545.34;4918963;29;20051;-67
2021/03/07 09:58:12;;;;;;;13.38;11.98;;;8.60;99.90;;;8.65;48.53;102540.06;4918716;29;20131;-67
2021/03/07 10:00:47;;;;;;;15.30;12.98;;;8.50;99.90;;;8.80;47.88;102559.00;4918325;29;20056;-66
2021/03/07 10:03:20;;;;;;;14.85;12.85;;;8.50;99.90;;;8.63;48.23;102554.94;4918760;29;20044;-74
2021/03/07 10:06:07;;;;;;;14.35;12.68;;;8.40;99.90;;;8.56;49.04;102568.81;4918936;29;20047;-70
2021/03/07 10:08:36;;;;;;;14.20;12.75;;;8.20;99.90;;;8.45;48.97;102567.59;4918777;29;20055;-68
2021/03/07 10:11:26;;;;;;;14.35;12.55;;;8.10;99.90;;;8.02;49.52;102565.28;4918665;29;20051;-71
2021/03/07 10:14:02;;;;;;;16.83;14.23;;;7.80;99.90;;;8.02;49.96;102567.00;4918423;29;20056;-70
2021/03/07 10:16:33;;;;;;;15.15;13.65;;;7.70;99.90;;;7.72;50.20;102532.66;4918572;29;20119;-70
2021/03/07 10:19:10;;;;;;;;;;;7.60;99.90;;;7.80;50.38;102552.22;4919035;29;20064;-68
2021/03/07 10:21:38;;;;;;;15.32;13.32;;;7.50;99.90;;;8.08;50.48;102557.56;4918584;29;19923;-69
2021/03/07 10:24:15;;;;;;;14.82;12.60;;;7.70;99.90;;;7.84;50.34;102559.38;4918381;29;20047;-69
2021/03/07 10:26:46;;;;;;;15.38;13.27;;;7.50;99.90;;;6.76;50.86;102440.63;4918601;29;20059;-68
2021/03/07 10:29:30;;;;;;;18.60;14.23;;;7.30;99.90;;;7.15;52.12;102538.50;4901255;29;20088;-68
2021/03/07 10:32:17;;;;;;;15.67;13.57;;;7.10;99.90;;;7.35;52.14;102563.81;4918548;29;20055;-69
2021/03/07 10:34:50;;;;;;;16.83;13.55;;;7.00;99.90;;;7.80;51.27;102560.13;4917811;29;20466;-69